createdAt,value
2018-07-28T00:00:35.835Z,63.60
2018-07-28T00:03:04.551Z,63.70
2018-07-28T00:05:33.271Z,63.80
2018-07-28T00:08:02.074Z,63.80
2018-07-28T00:10:30.775Z,63.90
2018-07-28T00:12:59.475Z,64.20
2018-07-28T00:17:56.731Z,64.60
2018-07-28T00:20:25.520Z,64.60
2018-07-28T00:22:54.208Z,64.90
2018-07-28T00:25:22.994Z,65.10
2018-07-28T00:27:51.696Z,65.60
2018-07-28T00:32:48.926Z,65.60
2018-07-28T00:35:17.670Z,65.50
2018-07-28T00:40:14.912Z,65.20
2018-07-28T00:42:43.619Z,65.00
2018-07-28T00:45:12.356Z,64.90
2018-07-28T00:47:41.078Z,64.90
2018-07-28T00:50:10.251Z,64.80
2018-07-28T00:52:39.388Z,64.10
2018-07-28T00:57:36.824Z,64.90
2018-07-28T01:00:06.579Z,64.90
2018-07-28T01:02:35.289Z,64.80
2018-07-28T01:05:04.463Z,64.90
2018-07-28T01:10:01.709Z,65.10
2018-07-28T01:12:30.648Z,65.10
2018-07-28T01:14:59.368Z,65.50
2018-07-28T01:17:28.074Z,65.90
2018-07-28T01:19:56.801Z,66.00
2018-07-28T01:22:25.549Z,65.80
2018-07-28T01:24:54.671Z,65.80
2018-07-28T01:32:26.003Z,66.00
2018-07-28T01:34:54.825Z,65.90
2018-07-28T01:37:23.499Z,66.00
2018-07-28T01:39:52.224Z,66.10
2018-07-28T01:42:20.941Z,66.10
2018-07-28T01:44:49.666Z,66.10
2018-07-28T01:47:18.463Z,66.40
2018-07-28T01:49:47.353Z,66.50
2018-07-28T01:52:16.041Z,66.50
2018-07-28T01:54:45.067Z,66.60
2018-07-28T01:57:14.636Z,66.60
2018-07-28T01:59:43.380Z,66.70
2018-07-28T02:02:12.449Z,66.70
2018-07-28T02:04:41.310Z,66.70
2018-07-28T02:07:10.034Z,66.70
2018-07-28T02:09:38.783Z,66.70
2018-07-28T02:12:07.636Z,66.80
2018-07-28T02:14:36.403Z,66.80
2018-07-28T02:17:05.113Z,66.80
2018-07-28T02:19:33.874Z,67.10
2018-07-28T02:22:02.594Z,67.30
2018-07-28T02:24:31.337Z,67.40
2018-07-28T02:34:25.830Z,67.30
2018-07-28T02:36:54.572Z,67.20
2018-07-28T02:39:23.360Z,67.10
2018-07-28T02:41:52.270Z,67.00
2018-07-28T02:44:21.114Z,67.10
2018-07-28T02:46:50.010Z,67.20
2018-07-28T02:49:18.732Z,67.30
2018-07-28T02:51:47.540Z,67.20
2018-07-28T02:54:16.260Z,67.30
2018-07-28T02:56:44.966Z,67.30
2018-07-28T02:59:13.705Z,67.20
2018-07-28T03:01:42.432Z,67.20
2018-07-28T03:04:11.178Z,67.20
2018-07-28T03:06:39.881Z,67.10
2018-07-28T03:09:10.172Z,67.20
2018-07-28T03:11:39.478Z,67.10
2018-07-28T03:14:08.324Z,67.20
2018-07-28T03:16:40.734Z,67.10
2018-07-28T03:19:09.473Z,67.00
2018-07-28T03:21:38.188Z,67.20
2018-07-28T03:26:35.370Z,67.20
2018-07-28T03:31:32.564Z,67.30
2018-07-28T03:34:01.271Z,67.30
2018-07-28T03:36:30.103Z,67.40
2018-07-28T03:41:27.373Z,67.50
2018-07-28T03:46:25.858Z,68.30
2018-07-28T03:48:54.623Z,67.60
2018-07-28T03:51:23.604Z,67.60
2018-07-28T03:53:52.709Z,67.70
2018-07-28T03:56:21.550Z,68.00
2018-07-28T03:58:51.000Z,68.10
2018-07-28T04:01:19.726Z,68.00
2018-07-28T04:06:17.147Z,68.00
2018-07-28T04:08:46.100Z,67.80
2018-07-28T04:13:43.323Z,68.00
2018-07-28T04:16:12.245Z,67.90
2018-07-28T04:18:40.922Z,67.90
2018-07-28T04:21:09.689Z,68.00
2018-07-28T04:23:38.747Z,68.00
2018-07-28T04:26:07.469Z,68.00
2018-07-28T04:28:36.264Z,68.30
2018-07-28T04:33:33.704Z,68.20
2018-07-28T04:36:02.412Z,68.10
2018-07-28T04:38:31.319Z,68.10
2018-07-28T04:41:00.054Z,68.10
2018-07-28T04:43:28.922Z,68.20
2018-07-28T04:45:57.953Z,68.10
2018-07-28T04:48:26.851Z,68.10
2018-07-28T04:50:55.728Z,68.10
2018-07-28T04:53:24.452Z,68.30
2018-07-28T04:55:53.503Z,68.40
2018-07-28T04:58:22.220Z,68.30
2018-07-28T05:00:50.983Z,68.30
2018-07-28T05:03:19.729Z,68.30
2018-07-28T05:05:48.501Z,68.30
2018-07-28T05:08:17.232Z,68.10
2018-07-28T05:10:45.954Z,68.10
2018-07-28T05:13:14.788Z,68.10
2018-07-28T05:15:43.618Z,67.90
2018-07-28T05:18:12.353Z,67.90
2018-07-28T05:20:41.421Z,67.70
2018-07-28T05:23:10.363Z,67.70
2018-07-28T05:25:39.099Z,67.70
2018-07-28T05:28:07.818Z,67.70
2018-07-28T05:30:36.612Z,67.60
2018-07-28T05:33:05.726Z,67.60
2018-07-28T05:35:34.420Z,67.70
2018-07-28T05:40:31.604Z,68.20
2018-07-28T05:45:28.775Z,67.40
2018-07-28T05:47:57.637Z,67.50
2018-07-28T05:50:26.376Z,67.50
2018-07-28T05:52:55.134Z,67.50
2018-07-28T05:55:23.871Z,67.50
2018-07-28T05:57:52.599Z,67.50
2018-07-28T06:02:49.986Z,67.60
2018-07-28T06:05:18.674Z,67.60
2018-07-28T06:07:47.419Z,67.60
2018-07-28T06:10:16.991Z,67.60
2018-07-28T06:12:45.996Z,67.50
2018-07-28T06:15:14.731Z,67.30
2018-07-28T06:17:43.489Z,67.20
2018-07-28T06:20:12.232Z,67.40
2018-07-28T06:25:09.451Z,67.30
2018-07-28T06:27:38.175Z,67.30
2018-07-28T06:35:04.566Z,67.20
2018-07-28T06:37:33.305Z,67.00
2018-07-28T06:40:02.101Z,66.90
2018-07-28T06:42:30.818Z,66.90
2018-07-28T06:44:59.622Z,66.70
2018-07-28T06:47:28.396Z,66.70
2018-07-28T06:52:25.843Z,66.70
2018-07-28T06:54:54.975Z,66.50
2018-07-28T06:59:52.246Z,66.20
2018-07-28T07:02:20.955Z,66.10
2018-07-28T07:04:49.775Z,66.00
2018-07-28T07:09:46.905Z,66.00
2018-07-28T07:12:16.039Z,65.90
2018-07-28T07:14:44.782Z,66.00
2018-07-28T07:17:13.535Z,65.90
2018-07-28T07:19:42.294Z,65.80
2018-07-28T07:22:11.102Z,65.60
2018-07-28T07:24:39.871Z,65.00
2018-07-28T07:27:08.680Z,65.30
2018-07-28T07:29:37.452Z,65.30
2018-07-28T07:32:06.191Z,65.30
2018-07-28T07:34:34.908Z,65.10
2018-07-28T07:37:03.671Z,64.90
2018-07-28T07:39:32.409Z,64.60
2018-07-28T07:42:01.288Z,64.40
2018-07-28T07:44:30.043Z,63.90
2018-07-28T07:46:59.134Z,63.90
2018-07-28T07:49:27.898Z,64.10
2018-07-28T07:51:56.641Z,64.00
2018-07-28T07:54:26.144Z,63.80
2018-07-28T07:56:54.883Z,63.50
2018-07-28T08:01:52.029Z,63.30
2018-07-28T08:04:20.793Z,63.50
2018-07-28T08:06:49.528Z,63.20
2018-07-28T08:09:18.315Z,63.10
2018-07-28T08:14:15.498Z,62.80
2018-07-28T08:16:44.222Z,62.70
2018-07-28T08:19:13.005Z,62.70
2018-07-28T08:21:41.794Z,62.90
2018-07-28T08:24:10.603Z,62.90
2018-07-28T08:26:40.296Z,62.20
2018-07-28T08:29:09.118Z,62.60
2018-07-28T08:31:37.939Z,62.70
2018-07-28T08:34:06.664Z,62.20
2018-07-28T08:36:35.485Z,62.30
2018-07-28T08:39:08.104Z,62.10
2018-07-28T08:41:36.819Z,61.80
2018-07-28T08:44:05.555Z,61.50
2018-07-28T08:49:03.195Z,61.50
2018-07-28T08:51:31.823Z,61.20
2018-07-28T08:56:29.155Z,61.00
2018-07-28T08:58:57.971Z,61.10
2018-07-28T09:01:26.783Z,60.50
2018-07-28T09:08:52.508Z,60.20
2018-07-28T09:11:21.211Z,60.00
2018-07-28T09:16:18.385Z,60.00
2018-07-28T09:18:47.138Z,59.70
2018-07-28T09:21:15.874Z,59.80
2018-07-28T09:23:44.655Z,59.80
2018-07-28T09:26:13.379Z,59.70
2018-07-28T09:28:42.086Z,59.70
2018-07-28T09:31:10.951Z,59.60
2018-07-28T09:33:39.671Z,60.00
2018-07-28T09:36:08.474Z,58.90
2018-07-28T09:38:37.175Z,58.40
2018-07-28T09:43:34.376Z,58.40
2018-07-28T09:46:03.455Z,59.20
2018-07-28T09:48:32.178Z,58.70
2018-07-28T09:51:00.902Z,58.10
2018-07-28T09:53:29.640Z,58.10
2018-07-28T09:55:58.348Z,58.10
2018-07-28T09:58:27.079Z,57.30
2018-07-28T10:03:32.597Z,57.30
2018-07-28T10:06:01.351Z,57.20
2018-07-28T10:08:34.044Z,56.90
2018-07-28T10:11:02.784Z,56.40
2018-07-28T10:13:31.524Z,56.40
2018-07-28T10:16:00.271Z,56.40
2018-07-28T10:20:57.477Z,56.70
2018-07-28T10:23:26.204Z,56.60
2018-07-28T10:25:54.914Z,56.70
2018-07-28T10:30:52.143Z,56.20
2018-07-28T10:33:20.956Z,56.00
2018-07-28T10:35:49.704Z,56.10
2018-07-28T10:38:18.432Z,55.60
2018-07-28T10:40:47.177Z,55.50
2018-07-28T10:43:15.887Z,55.70
2018-07-28T10:45:44.788Z,55.70
2018-07-28T10:50:42.151Z,55.20
2018-07-28T10:53:10.867Z,55.10
2018-07-28T10:58:08.172Z,55.30
2018-07-28T11:00:36.917Z,55.70
2018-07-28T11:03:05.637Z,55.90
2018-07-28T11:05:34.360Z,55.40
2018-07-28T11:08:03.118Z,55.00
2018-07-28T11:10:31.871Z,55.10
2018-07-28T11:13:00.659Z,54.80
2018-07-28T11:15:29.364Z,54.40
2018-07-28T11:20:26.557Z,54.70
2018-07-28T11:22:55.542Z,53.80
2018-07-28T11:25:24.295Z,53.80
2018-07-28T11:27:52.973Z,54.00
2018-07-28T11:30:21.727Z,53.90
2018-07-28T11:33:01.991Z,53.50
2018-07-28T11:35:42.518Z,52.90
2018-07-28T11:38:22.750Z,52.20
2018-07-28T11:41:03.108Z,52.30
2018-07-28T11:43:43.336Z,52.10
2018-07-28T11:46:12.077Z,51.10
2018-07-28T11:53:38.138Z,50.40
2018-07-28T11:58:35.771Z,49.60
2018-07-28T12:01:04.917Z,49.70
2018-07-28T12:06:02.574Z,49.30
2018-07-28T12:08:31.301Z,49.20
2018-07-28T12:11:00.181Z,48.90
2018-07-28T12:13:29.067Z,49.30
2018-07-28T12:15:58.066Z,49.10
2018-07-28T12:18:26.883Z,48.70
2018-07-28T12:20:55.566Z,51.00
2018-07-28T12:23:24.331Z,50.00
2018-07-28T12:25:53.055Z,49.60
2018-07-28T12:28:22.023Z,48.80
2018-07-28T12:30:50.748Z,48.80
2018-07-28T12:33:19.516Z,48.60
2018-07-28T12:35:48.256Z,48.40
2018-07-28T12:40:45.648Z,48.80
2018-07-28T12:43:14.392Z,49.30
2018-07-28T12:45:43.221Z,49.30
2018-07-28T12:48:11.943Z,49.40
2018-07-28T12:50:41.017Z,49.00
2018-07-28T12:53:09.729Z,48.10
2018-07-28T12:55:38.491Z,48.20
2018-07-28T12:58:07.182Z,48.60
2018-07-28T13:00:35.907Z,48.00
2018-07-28T13:03:04.782Z,48.00
2018-07-28T13:05:33.658Z,48.00
2018-07-28T13:08:02.381Z,47.90
2018-07-28T13:10:31.121Z,47.60
2018-07-28T13:12:59.825Z,48.90
2018-07-28T13:15:28.554Z,48.20
2018-07-28T13:17:57.353Z,47.70
2018-07-28T13:25:23.915Z,47.90
2018-07-28T13:27:53.282Z,48.10
2018-07-28T13:30:22.012Z,47.50
2018-07-28T13:32:50.731Z,47.50
2018-07-28T13:35:19.648Z,47.30
2018-07-28T13:37:48.373Z,47.70
2018-07-28T13:40:17.092Z,48.00
2018-07-28T13:42:45.875Z,47.80
2018-07-28T13:50:11.844Z,47.20
2018-07-28T13:52:40.678Z,47.50
2018-07-28T13:55:09.390Z,47.40
2018-07-28T13:57:41.388Z,47.70
2018-07-28T14:00:10.203Z,47.10
2018-07-28T14:02:38.921Z,47.00
2018-07-28T14:05:07.710Z,46.30
2018-07-28T14:07:36.478Z,46.00
2018-07-28T14:10:06.143Z,46.30
2018-07-28T14:15:09.292Z,45.70
2018-07-28T14:20:06.713Z,46.20
2018-07-28T14:25:04.738Z,46.20
2018-07-28T14:30:02.207Z,46.60
2018-07-28T14:32:31.008Z,46.30
2018-07-28T14:34:59.834Z,46.10
2018-07-28T14:37:28.625Z,45.70
2018-07-28T14:39:57.413Z,45.70
2018-07-28T14:42:26.310Z,45.70
2018-07-28T14:44:55.066Z,45.80
2018-07-28T14:47:23.786Z,45.90
2018-07-28T14:49:52.508Z,46.00
2018-07-28T14:52:21.231Z,46.10
2018-07-28T14:54:49.967Z,46.20
2018-07-28T14:57:18.753Z,46.40
2018-07-28T14:59:47.454Z,45.50
2018-07-28T15:02:16.168Z,45.60
2018-07-28T15:04:44.923Z,46.00
2018-07-28T15:07:13.649Z,45.60
2018-07-28T15:09:42.363Z,45.50
2018-07-28T15:12:11.078Z,45.70
2018-07-28T15:17:08.348Z,45.90
2018-07-28T15:24:33.966Z,44.80
2018-07-28T15:27:02.898Z,44.90
2018-07-28T15:32:00.104Z,45.10
2018-07-28T15:34:28.857Z,45.20
2018-07-28T15:36:57.604Z,44.80
2018-07-28T15:39:26.371Z,44.80
2018-07-28T15:41:55.123Z,44.60
2018-07-28T15:44:23.880Z,44.90
2018-07-28T15:46:52.583Z,44.80
2018-07-28T15:51:50.142Z,44.60
2018-07-28T15:54:18.818Z,44.30
2018-07-28T15:56:47.544Z,44.50
2018-07-28T15:59:20.185Z,44.70
2018-07-28T16:01:49.153Z,44.90
2018-07-28T16:04:17.874Z,44.80
2018-07-28T16:06:46.556Z,44.80
2018-07-28T16:09:15.349Z,44.70
2018-07-28T16:11:44.037Z,44.30
2018-07-28T16:14:12.754Z,44.00
2018-07-28T16:16:42.161Z,44.20
2018-07-28T16:19:10.876Z,44.20
2018-07-28T16:21:39.707Z,43.60
2018-07-28T16:24:08.413Z,43.20
2018-07-28T16:29:05.691Z,42.70
2018-07-28T16:31:35.281Z,44.30
2018-07-28T16:34:04.058Z,43.90
2018-07-28T16:36:32.767Z,44.10
2018-07-28T16:39:01.534Z,44.50
2018-07-28T16:41:30.365Z,44.60
2018-07-28T16:43:59.088Z,45.00
2018-07-28T16:46:27.983Z,45.50
2018-07-28T16:48:56.795Z,46.00
2018-07-28T16:51:25.581Z,45.50
2018-07-28T16:53:54.356Z,45.40
2018-07-28T16:56:23.196Z,45.00
2018-07-28T16:58:52.091Z,44.60
2018-07-28T17:01:20.800Z,44.10
2018-07-28T17:03:49.626Z,44.00
2018-07-28T17:06:18.872Z,43.70
2018-07-28T17:08:47.646Z,43.20
2018-07-28T17:11:16.366Z,43.50
2018-07-28T17:13:45.474Z,43.70
2018-07-28T17:16:14.187Z,43.20
2018-07-28T17:18:42.947Z,43.70
2018-07-28T17:21:11.765Z,43.50
2018-07-28T17:23:40.531Z,43.90
2018-07-28T17:26:09.277Z,44.00
2018-07-28T17:28:38.061Z,44.20
2018-07-28T17:31:06.879Z,44.40
2018-07-28T17:33:35.696Z,45.20
2018-07-28T17:36:04.461Z,44.90
2018-07-28T17:38:33.190Z,45.10
2018-07-28T17:41:02.104Z,44.50
2018-07-28T17:43:30.829Z,43.90
2018-07-28T17:46:03.532Z,44.10
2018-07-28T17:48:32.296Z,44.60
2018-07-28T17:51:01.047Z,46.00
2018-07-28T17:53:29.823Z,46.10
2018-07-28T17:55:58.596Z,46.40
2018-07-28T17:58:27.283Z,46.30
2018-07-28T18:00:56.076Z,46.30
2018-07-28T18:03:24.858Z,46.10
2018-07-28T18:05:53.988Z,45.80
2018-07-28T18:08:23.195Z,46.50
2018-07-28T18:10:51.952Z,47.50
2018-07-28T18:13:20.657Z,49.30
2018-07-28T18:18:17.900Z,53.60
2018-07-28T18:20:46.609Z,55.00
2018-07-28T18:25:44.008Z,57.00
2018-07-28T18:28:12.752Z,57.60
2018-07-28T18:30:41.515Z,58.20
2018-07-28T18:35:38.816Z,62.50
2018-07-28T18:38:07.943Z,64.00
2018-07-28T18:40:36.724Z,65.30
2018-07-28T18:45:34.170Z,65.50
2018-07-28T18:48:02.891Z,66.30
2018-07-28T18:50:31.635Z,67.20
2018-07-28T18:53:00.480Z,67.10
2018-07-28T18:55:29.326Z,67.40
2018-07-28T18:57:58.114Z,66.20
2018-07-28T19:00:26.939Z,66.50
2018-07-28T19:02:55.654Z,66.50
2018-07-28T19:05:24.416Z,66.10
2018-07-28T19:07:53.122Z,66.50
2018-07-28T19:10:21.991Z,66.20
2018-07-28T19:12:56.173Z,65.70
2018-07-28T19:15:24.964Z,65.20
2018-07-28T19:18:02.891Z,64.90
2018-07-28T19:20:31.655Z,64.40
2018-07-28T19:23:05.879Z,64.10
2018-07-28T19:25:34.575Z,63.70
2018-07-28T19:33:06.111Z,66.30
2018-07-28T19:36:43.236Z,66.80
2018-07-28T19:39:11.907Z,68.20
2018-07-28T19:41:46.651Z,67.60
2018-07-28T19:44:15.493Z,67.80
2018-07-28T19:46:44.233Z,69.10
2018-07-28T19:49:13.046Z,67.30
2018-07-28T19:51:41.846Z,67.60
2018-07-28T19:54:10.603Z,67.50
2018-07-28T19:56:39.306Z,66.90
2018-07-28T20:01:36.476Z,66.40
2018-07-28T20:06:34.592Z,66.00
2018-07-28T20:09:03.375Z,65.50
2018-07-28T20:11:32.200Z,65.60
2018-07-28T20:14:01.065Z,65.80
2018-07-28T20:16:29.783Z,65.70
2018-07-28T20:18:58.587Z,66.10
2018-07-28T20:21:27.411Z,66.10
2018-07-28T20:26:25.026Z,66.50
2018-07-28T20:28:53.743Z,67.10
2018-07-28T20:31:22.662Z,67.00
2018-07-28T20:36:19.834Z,66.60
2018-07-28T20:38:48.559Z,66.50
2018-07-28T20:41:17.373Z,66.50
2018-07-28T20:43:46.148Z,66.50
2018-07-28T20:46:14.857Z,66.90
2018-07-28T20:48:43.674Z,67.50
2018-07-28T20:51:12.482Z,68.30
2018-07-28T20:53:41.154Z,69.20
2018-07-28T20:56:09.912Z,70.30
2018-07-28T20:58:39.312Z,71.70
2018-07-28T21:01:08.547Z,72.70
2018-07-28T21:03:37.298Z,73.60
2018-07-28T21:06:06.515Z,72.80
2018-07-28T21:08:35.326Z,72.00
2018-07-28T21:11:04.116Z,71.90
2018-07-28T21:13:32.850Z,72.20
2018-07-28T21:16:01.659Z,72.70
2018-07-28T21:20:59.171Z,72.80
2018-07-28T21:23:27.882Z,72.30
2018-07-28T21:25:56.631Z,71.70
2018-07-28T21:28:25.387Z,71.30
2018-07-28T21:30:54.103Z,71.00
2018-07-28T21:33:22.852Z,71.60
2018-07-28T21:35:51.571Z,72.70
2018-07-28T21:38:20.315Z,73.80
2018-07-28T21:40:49.053Z,74.00
2018-07-28T21:45:46.183Z,72.80
2018-07-28T21:48:14.988Z,73.30
2018-07-28T21:50:43.716Z,74.60
2018-07-28T21:53:12.426Z,76.00
2018-07-28T21:55:41.515Z,76.60
2018-07-28T21:58:10.348Z,76.90
2018-07-28T22:00:44.763Z,76.20
2018-07-28T22:03:13.495Z,76.40
2018-07-28T22:05:43.268Z,75.10
2018-07-28T22:08:11.995Z,75.50
2018-07-28T22:10:40.739Z,74.80
2018-07-28T22:13:09.520Z,76.10
2018-07-28T22:15:38.322Z,75.20
2018-07-28T22:18:07.043Z,75.50
2018-07-28T22:20:35.799Z,76.20
2018-07-28T22:23:04.574Z,77.00
2018-07-28T22:25:33.300Z,78.50
2018-07-28T22:28:02.035Z,78.20
2018-07-28T22:30:30.883Z,78.80
2018-07-28T22:32:59.588Z,78.50
2018-07-28T22:35:28.579Z,78.40
2018-07-28T22:37:57.308Z,77.90
2018-07-28T22:40:26.053Z,78.10
2018-07-28T22:42:54.897Z,78.60
2018-07-28T22:45:23.675Z,78.30
2018-07-28T22:47:52.399Z,78.60
2018-07-28T22:50:21.403Z,79.10
2018-07-28T22:52:50.190Z,79.30
2018-07-28T22:55:18.919Z,79.00
2018-07-28T22:57:47.836Z,79.20
2018-07-28T23:00:16.547Z,78.50
2018-07-28T23:05:13.722Z,79.20
2018-07-28T23:07:42.731Z,78.90
2018-07-28T23:10:11.473Z,79.00
2018-07-28T23:12:40.263Z,79.30
2018-07-28T23:15:09.054Z,79.70
2018-07-28T23:17:37.741Z,79.50
2018-07-28T23:20:06.610Z,79.30
2018-07-28T23:22:35.343Z,79.70
2018-07-28T23:25:04.534Z,80.00
2018-07-28T23:30:01.752Z,78.50
2018-07-28T23:32:30.479Z,77.80
2018-07-28T23:34:59.199Z,76.90
2018-07-28T23:37:27.903Z,76.50
2018-07-28T23:39:56.622Z,76.90
2018-07-28T23:42:25.358Z,77.40
2018-07-28T23:44:54.900Z,77.60
2018-07-28T23:47:23.709Z,77.80
2018-07-28T23:49:52.419Z,77.90
2018-07-28T23:52:21.119Z,78.10
2018-07-28T23:54:49.850Z,78.20
2018-07-28T23:57:18.795Z,78.70
2018-07-28T23:59:47.551Z,79.00
